Ingeniero Juan Guillermo Villasana Airport

Jump to: basic info | weather | frequencies | runways | comments

Related pages: nearby airports | nearby navaids | notams | map

Basic information (top)

Codes: MMPC
Location: lon 20.077400, lat -98.782501, elev 7,600 ft / 2,316 m msl
Status: small_airport

Weather (top)

Current conditions for Licenciado Benito Juarez International Airport 42nm (77km) SSW (rec'd 2014/04/18 15:24Z):

MMMX 181524Z 06003KT 6SM SKC 18/09 A3034 NOSIG RMK HZY DSNT CU SSW

Airport forecast for Licenciado Benito Juarez International Airport 42nm (77km) SSW (rec'd 2014/04/17 00:13Z):

TAF MMMX 172306Z 1800/1906 20010KT 6SM HZ VC RA SCT020CB BKN080 TX26/1821Z TN14/1812Z 
      TEMPO 1800/1804 5SM TSRA BKN020CB 
     FM180600 00000KT P6SM SCT080 
     FM181200 07005KT P6SM SCT020 
     FM181800 15010KT P6SM SCT020 SCT080 
     FM182100 20010KT 6SM HZ VC RA SCT020CB BKN080 
      TEMPO 1822/1902 3SM TSRA BKN020CB

Frequencies (top)

Verify before use: may be inaccurate or out of date.

AFIS: 122.9 MHz (AFIS)

Runways (top)

03/21: 6,825 x 85 ft (2,080 x 26 m) — paved — not lighted — threshold 03 displaced 656 ft (200 m) — threshold 21 displaced 865 ft (264 m)

Latest comments (top)

No comments yet for Ingeniero Juan Guillermo Villasana Airport

More... (top)

See also NOTAMs and nearby airports and navaids, or visit the Ingeniero Juan Guillermo Villasana Airport page at the main OurAirports website..